createdAt,value
2023-04-05T00:00:11.055Z,95936.00
2023-04-05T00:04:14.759Z,95944.00
2023-04-05T00:08:23.964Z,95937.00
2023-04-05T00:12:28.316Z,95926.00
2023-04-05T00:16:31.601Z,95934.00
2023-04-05T00:20:37.310Z,95921.00
2023-04-05T00:24:42.010Z,95917.00
2023-04-05T00:28:46.217Z,95915.00
2023-04-05T00:32:49.869Z,95915.00
2023-04-05T00:36:52.737Z,95913.00
2023-04-05T00:40:55.651Z,95910.00
2023-04-05T00:44:59.901Z,95897.00
2023-04-05T00:49:03.053Z,95902.00
2023-04-05T00:53:06.469Z,95899.00
2023-04-05T00:57:09.362Z,95898.00
2023-04-05T01:01:18.222Z,95887.00
2023-04-05T01:05:35.961Z,95881.00
2023-04-05T01:09:46.472Z,95882.00
2023-04-05T01:13:49.370Z,95875.00
2023-04-05T01:17:54.166Z,95873.00
2023-04-05T01:22:27.646Z,95878.00
2023-04-05T01:26:58.412Z,95867.00
2023-04-05T01:31:09.924Z,95862.00
2023-04-05T01:35:20.762Z,95855.00
2023-04-05T01:39:25.944Z,95856.00
2023-04-05T01:43:28.809Z,95851.00
2023-04-05T01:47:33.417Z,95838.00
2023-04-05T01:51:36.809Z,95852.00
2023-04-05T01:55:39.616Z,95838.00
2023-04-05T01:59:42.471Z,95838.00
2023-04-05T02:03:46.790Z,95838.00
2023-04-05T02:07:49.632Z,95842.00
2023-04-05T02:11:52.438Z,95825.00
2023-04-05T02:15:55.312Z,95832.00
2023-04-05T02:20:02.241Z,95822.00
2023-04-05T02:24:05.342Z,95821.00
2023-04-05T02:28:09.626Z,95828.00
2023-04-05T02:32:13.546Z,95809.00
2023-04-05T02:36:17.689Z,95817.00
2023-04-05T02:40:22.812Z,95809.00
2023-04-05T02:44:25.766Z,95808.00
2023-04-05T02:48:30.850Z,95809.00
2023-04-05T02:52:37.541Z,95805.00
2023-04-05T02:56:41.007Z,95800.00
2023-04-05T03:00:51.125Z,95796.00
2023-04-05T03:05:02.226Z,95792.00
2023-04-05T03:09:09.128Z,95799.00
2023-04-05T03:13:14.901Z,95799.00
2023-04-05T03:17:18.978Z,95801.00
2023-04-05T03:21:30.846Z,95790.00
2023-04-05T03:25:43.057Z,95800.00
2023-04-05T03:29:47.231Z,95801.00
2023-04-05T03:33:53.175Z,95793.00
2023-04-05T03:37:56.937Z,95788.00
2023-04-05T03:42:01.452Z,95793.00
2023-04-05T03:46:05.142Z,95781.00
2023-04-05T03:50:09.765Z,95785.00
2023-04-05T03:54:12.550Z,95786.00
2023-04-05T03:58:17.215Z,95781.00
2023-04-05T04:02:20.908Z,95776.00
2023-04-05T04:06:27.176Z,95779.00
2023-04-05T04:10:30.787Z,95777.00
2023-04-05T04:14:36.877Z,95779.00
2023-04-05T04:19:02.579Z,95782.00
2023-04-05T04:23:34.714Z,95777.00
2023-04-05T04:27:57.612Z,95775.00
2023-04-05T04:32:27.172Z,95788.00
2023-04-05T04:36:48.200Z,95775.00
2023-04-05T04:41:07.012Z,95774.00
2023-04-05T04:45:21.872Z,95771.00
2023-04-05T04:49:36.130Z,95776.00
2023-04-05T04:53:38.977Z,95774.00
2023-04-05T04:57:42.467Z,95773.00
2023-04-05T05:01:46.593Z,95781.00
2023-04-05T05:05:53.707Z,95784.00
2023-04-05T05:10:06.263Z,95779.00
2023-04-05T05:14:09.092Z,95765.00
2023-04-05T05:18:12.424Z,95766.00
2023-04-05T05:22:16.593Z,95780.00
2023-04-05T05:26:19.359Z,95778.00
2023-04-05T05:30:22.137Z,95776.00
2023-04-05T05:34:25.647Z,95772.00
2023-04-05T05:38:33.671Z,95777.00
2023-04-05T05:42:36.719Z,95785.00
2023-04-05T05:46:39.570Z,95781.00
2023-04-05T05:50:42.804Z,95794.00
2023-04-05T05:54:47.323Z,95786.00
2023-04-05T05:58:50.157Z,95803.00
2023-04-05T06:02:53.709Z,95818.00
2023-04-05T06:06:56.608Z,95833.00
2023-04-05T06:11:00.861Z,95842.00
2023-04-05T06:15:03.764Z,95851.00
2023-04-05T06:19:06.586Z,95855.00
2023-04-05T06:23:09.367Z,95863.00
2023-04-05T06:27:14.627Z,95845.00
2023-04-05T06:31:18.270Z,95847.00
2023-04-05T06:35:21.286Z,95850.00
2023-04-05T06:39:24.039Z,95856.00
2023-04-05T06:43:28.174Z,95864.00
2023-04-05T06:47:31.257Z,95876.00
2023-04-05T06:51:34.069Z,95871.00
2023-04-05T06:55:36.981Z,95868.00
2023-04-05T06:59:41.336Z,95865.00
2023-04-05T07:03:44.342Z,95871.00
2023-04-05T07:07:48.785Z,95866.00
2023-04-05T07:11:51.611Z,95862.00
2023-04-05T07:16:01.706Z,95873.00
2023-04-05T07:20:07.592Z,95866.00
2023-04-05T07:24:10.410Z,95881.00
2023-04-05T07:28:13.254Z,95875.00
2023-04-05T07:32:17.492Z,95883.00
2023-04-05T07:36:20.510Z,95880.00
2023-04-05T07:40:23.443Z,95885.00
2023-04-05T07:44:26.390Z,95888.00
2023-04-05T07:48:30.863Z,95892.00
2023-04-05T07:52:33.518Z,95901.00
2023-04-05T07:56:38.401Z,95907.00
2023-04-05T08:00:42.257Z,95903.00
2023-04-05T08:04:47.233Z,95905.00
2023-04-05T08:08:50.095Z,95909.00
2023-04-05T08:12:52.939Z,95908.00
2023-04-05T08:16:55.745Z,95912.00
2023-04-05T08:20:59.943Z,95918.00
2023-04-05T08:25:02.935Z,95913.00
2023-04-05T08:29:05.892Z,95918.00
2023-04-05T08:33:09.121Z,95924.00
2023-04-05T08:37:13.313Z,95924.00
2023-04-05T08:41:19.269Z,95919.00
2023-04-05T08:45:24.069Z,95917.00
2023-04-05T08:49:27.009Z,95915.00
2023-04-05T08:53:31.734Z,95921.00
2023-04-05T08:57:38.705Z,95919.00
2023-04-05T09:01:44.064Z,95926.00
2023-04-05T09:05:49.266Z,95923.00
2023-04-05T09:09:55.860Z,95924.00
2023-04-05T09:13:58.882Z,95927.00
2023-04-05T09:18:02.833Z,95922.00
2023-04-05T09:22:09.804Z,95931.00
2023-04-05T09:26:21.384Z,95923.00
2023-04-05T09:30:28.725Z,95923.00
2023-04-05T09:34:33.394Z,95930.00
2023-04-05T09:38:46.332Z,95927.00
2023-04-05T09:42:50.852Z,95925.00
2023-04-05T09:46:53.707Z,95930.00
2023-04-05T09:51:12.801Z,95925.00
2023-04-05T09:55:27.889Z,95926.00
2023-04-05T09:59:34.190Z,95916.00
2023-04-05T10:03:47.896Z,95929.00
2023-04-05T10:07:51.510Z,95924.00
2023-04-05T10:11:54.469Z,95914.00
2023-04-05T10:16:02.046Z,95918.00
2023-04-05T10:20:14.357Z,95916.00
2023-04-05T10:24:29.703Z,95913.00
2023-04-05T10:28:34.631Z,95909.00
2023-04-05T10:32:54.715Z,95909.00
2023-04-05T10:37:01.661Z,95900.00
2023-04-05T10:41:12.762Z,95892.00
2023-04-05T10:45:19.661Z,95894.00
2023-04-05T10:49:34.520Z,95898.00
2023-04-05T10:53:38.709Z,95892.00
2023-04-05T10:57:42.205Z,95886.00
2023-04-05T11:01:47.482Z,95888.00
2023-04-05T11:05:51.747Z,95880.00
2023-04-05T11:10:00.742Z,95882.00
2023-04-05T11:14:18.986Z,95886.00
2023-04-05T11:18:23.357Z,95892.00
2023-04-05T11:22:28.899Z,95893.00
2023-04-05T11:26:54.208Z,95882.00
2023-04-05T11:30:58.971Z,95879.00
2023-04-05T11:35:06.843Z,95877.00
2023-04-05T11:39:27.334Z,95881.00
2023-04-05T11:43:30.783Z,95871.00
2023-04-05T11:47:38.190Z,95872.00
2023-04-05T11:51:42.557Z,95867.00
2023-04-05T11:55:47.840Z,95857.00
2023-04-05T11:59:51.605Z,95866.00
2023-04-05T12:03:56.329Z,95864.00
2023-04-05T12:07:59.305Z,95866.00
2023-04-05T12:12:03.668Z,95868.00
2023-04-05T12:16:08.190Z,95861.00
2023-04-05T12:20:12.349Z,95862.00
2023-04-05T12:24:15.405Z,95851.00
2023-04-05T12:28:19.711Z,95847.00
2023-04-05T12:32:23.061Z,95860.00
2023-04-05T12:36:28.752Z,95849.00
2023-04-05T12:40:32.917Z,95863.00
2023-04-05T12:44:37.144Z,95856.00
2023-04-05T12:48:39.890Z,95860.00
2023-04-05T12:52:53.929Z,95864.00
2023-04-05T12:56:57.002Z,95850.00
2023-04-05T13:01:01.232Z,95856.00
2023-04-05T13:05:04.258Z,95855.00
2023-04-05T13:09:07.014Z,95852.00
2023-04-05T13:13:09.788Z,95852.00
2023-04-05T13:17:14.174Z,95841.00
2023-04-05T13:21:17.200Z,95842.00
2023-04-05T13:25:20.018Z,95837.00
2023-04-05T13:29:22.860Z,95836.00
2023-04-05T13:33:27.397Z,95835.00
2023-04-05T13:37:30.485Z,95839.00
2023-04-05T13:41:33.435Z,95828.00
2023-04-05T13:45:37.679Z,95825.00
2023-04-05T13:49:41.882Z,95822.00
2023-04-05T13:53:44.734Z,95827.00
2023-04-05T13:57:47.777Z,95816.00
2023-04-05T14:01:50.778Z,95817.00
2023-04-05T14:05:55.731Z,95816.00
2023-04-05T14:09:58.622Z,95808.00
2023-04-05T14:14:01.577Z,95809.00
2023-04-05T14:18:05.667Z,95804.00
2023-04-05T14:22:10.253Z,95808.00
2023-04-05T14:26:13.136Z,95801.00
2023-04-05T14:30:16.492Z,95788.00
2023-04-05T14:34:19.820Z,95795.00
2023-04-05T14:38:24.948Z,95804.00
2023-04-05T14:42:37.491Z,95788.00
2023-04-05T14:46:50.683Z,95772.00
2023-04-05T14:50:53.644Z,95774.00
2023-04-05T14:54:57.867Z,95775.00
2023-04-05T14:59:00.809Z,95775.00
2023-04-05T15:03:03.893Z,95785.00
2023-04-05T15:07:08.030Z,95776.00
2023-04-05T15:11:12.403Z,95773.00
2023-04-05T15:15:15.543Z,95776.00
2023-04-05T15:19:18.460Z,95775.00
2023-04-05T15:23:21.537Z,95780.00
2023-04-05T15:27:25.847Z,95776.00
2023-04-05T15:31:28.762Z,95782.00
2023-04-05T15:35:33.510Z,95775.00
2023-04-05T15:39:36.393Z,95773.00
2023-04-05T15:43:40.658Z,95776.00
2023-04-05T15:47:43.597Z,95776.00
2023-04-05T15:51:46.653Z,95770.00
2023-04-05T15:55:49.506Z,95775.00
2023-04-05T15:59:56.556Z,95773.00
2023-04-05T16:03:59.782Z,95769.00
2023-04-05T16:08:02.875Z,95774.00
2023-04-05T16:12:06.034Z,95777.00
2023-04-05T16:16:10.640Z,95767.00
2023-04-05T16:20:13.571Z,95772.00
2023-04-05T16:24:16.672Z,95762.00
2023-04-05T16:28:19.579Z,95768.00
2023-04-05T16:32:23.852Z,95769.00
2023-04-05T16:36:27.574Z,95761.00
2023-04-05T16:40:30.633Z,95765.00
2023-04-05T16:44:33.531Z,95770.00
2023-04-05T16:48:37.760Z,95763.00
2023-04-05T16:52:40.624Z,95773.00
2023-04-05T16:56:43.544Z,95760.00
2023-04-05T17:00:46.443Z,95777.00
2023-04-05T17:04:50.677Z,95764.00
2023-04-05T17:08:53.534Z,95770.00
2023-04-05T17:12:56.496Z,95770.00
2023-04-05T17:16:59.354Z,95776.00
2023-04-05T17:21:03.662Z,95762.00
2023-04-05T17:25:07.274Z,95772.00
2023-04-05T17:29:10.240Z,95775.00
2023-04-05T17:33:13.212Z,95772.00
2023-04-05T17:37:17.519Z,95769.00
2023-04-05T17:41:20.472Z,95778.00
2023-04-05T17:45:23.385Z,95779.00
2023-04-05T17:49:26.321Z,95775.00
2023-04-05T17:53:30.757Z,95780.00
2023-04-05T17:57:33.690Z,95779.00
2023-04-05T18:01:37.857Z,95777.00
2023-04-05T18:05:40.973Z,95781.00
2023-04-05T18:09:45.680Z,95789.00
2023-04-05T18:13:48.659Z,95796.00
2023-04-05T18:17:51.838Z,95790.00
2023-04-05T18:21:54.776Z,95793.00
2023-04-05T18:25:59.276Z,95796.00
2023-04-05T18:30:02.329Z,95812.00
2023-04-05T18:34:27.912Z,95812.00
2023-04-05T18:38:30.794Z,95819.00
2023-04-05T18:42:35.524Z,95818.00
2023-04-05T18:46:38.646Z,95817.00
2023-04-05T18:50:41.548Z,95825.00
2023-04-05T18:54:44.353Z,95823.00
2023-04-05T18:58:49.834Z,95839.00
2023-04-05T19:02:52.905Z,95837.00
2023-04-05T19:06:56.094Z,95832.00
2023-04-05T19:11:56.449Z,95841.00
2023-04-05T19:16:00.938Z,95838.00
2023-04-05T19:20:04.194Z,95846.00
2023-04-05T19:24:09.623Z,95843.00
2023-04-05T19:28:12.549Z,95834.00
2023-04-05T19:32:17.093Z,95837.00
2023-04-05T19:36:20.099Z,95848.00
2023-04-05T19:40:24.228Z,95847.00
2023-04-05T19:44:49.517Z,95846.00
2023-04-05T19:48:54.011Z,95850.00
2023-04-05T19:52:56.920Z,95845.00
2023-04-05T19:57:01.661Z,95837.00
2023-04-05T20:01:09.707Z,95845.00
2023-04-05T20:05:16.030Z,95838.00
2023-04-05T20:09:20.069Z,95847.00
2023-04-05T20:13:22.958Z,95830.00
2023-04-05T20:17:28.309Z,95834.00
2023-04-05T20:21:33.324Z,95834.00
2023-04-05T20:25:39.292Z,95838.00
2023-04-05T20:29:42.226Z,95836.00
2023-04-05T20:33:49.803Z,95824.00
2023-04-05T20:37:54.096Z,95830.00
2023-04-05T20:41:57.830Z,95832.00
2023-04-05T20:46:02.673Z,95820.00
2023-04-05T20:50:06.636Z,95822.00
2023-04-05T20:54:10.925Z,95821.00
2023-04-05T20:58:13.778Z,95818.00
2023-04-05T21:02:16.827Z,95828.00
2023-04-05T21:06:19.759Z,95815.00
2023-04-05T21:10:24.081Z,95815.00
2023-04-05T21:14:27.996Z,95821.00
2023-04-05T21:18:31.012Z,95825.00
2023-04-05T21:22:34.131Z,95823.00
2023-04-05T21:26:38.356Z,95826.00
2023-04-05T21:30:41.492Z,95813.00
2023-04-05T21:34:44.702Z,95825.00
2023-04-05T21:38:47.596Z,95821.00
2023-04-05T21:42:51.876Z,95811.00
2023-04-05T21:46:54.810Z,95821.00
2023-04-05T21:50:57.750Z,95809.00
2023-04-05T21:55:00.661Z,95818.00
2023-04-05T21:59:05.039Z,95817.00
2023-04-05T22:03:08.061Z,95823.00
2023-04-05T22:07:11.219Z,95818.00
2023-04-05T22:11:14.379Z,95811.00
2023-04-05T22:15:18.632Z,95811.00
2023-04-05T22:19:21.806Z,95813.00
2023-04-05T22:23:24.804Z,95807.00
2023-04-05T22:27:29.346Z,95810.00
2023-04-05T22:31:33.723Z,95799.00
2023-04-05T22:35:36.712Z,95798.00
2023-04-05T22:39:39.809Z,95803.00
2023-04-05T22:43:42.694Z,95804.00
2023-04-05T22:47:46.943Z,95801.00
2023-04-05T22:51:49.952Z,95800.00
2023-04-05T22:55:52.837Z,95797.00
2023-04-05T22:59:55.883Z,95790.00
2023-04-05T23:04:00.143Z,95796.00
2023-04-05T23:08:03.034Z,95792.00
2023-04-05T23:12:06.346Z,95793.00
2023-04-05T23:16:09.391Z,95796.00
2023-04-05T23:20:14.084Z,95796.00
2023-04-05T23:24:17.191Z,95790.00
2023-04-05T23:28:20.132Z,95791.00
2023-04-05T23:32:23.104Z,95787.00
2023-04-05T23:36:27.753Z,95781.00
2023-04-05T23:40:30.656Z,95779.00
2023-04-05T23:44:33.664Z,95782.00
2023-04-05T23:48:36.544Z,95782.00
2023-04-05T23:52:40.813Z,95777.00
2023-04-05T23:56:43.686Z,95783.00
